Home   Weather   USA   Lincoln   Past weeks
Flag for USA

Past Weather in Lincoln, Nebraska, USA — Yesterday and Last 2 Weeks

Currently: 69 °F. Sunny. (Weather station: Lincoln Municipal Airport, USA). See more current weather

Past Weather in Lincoln — Graph

°F

Lincoln Temperature Yesterday

Maximum temperature yesterday: 55 °F (at 3:54 pm)
Minimum temperature yesterday: 32 °F (at 6:01 am)
Average temperature yesterday: 43 °F

High & Low Weather Summary for the Past Weeks

 TemperatureHumidityPressure
High81 °F (Feb 26, 1:54 pm)93% (Mar 2, 5:54 am)30.53 "Hg (Mar 2, 5:54 am)
Low10 °F (Feb 17, 12:54 am)9% (Feb 26, 1:54 pm)29.34 "Hg (Feb 27, 3:54 am)
Average40 °F52%29.97 "Hg
* Reported Feb 16 1:15 pm — Mar 2 1:54 pm, Lincoln. Weather by CustomWeather, © 2024

Note: Actual official high and low records may vary slightly from our data, if they occured in-between our weather recording intervals... More about our weather records

Lincoln Weather History for the Previous 24 Hours

Scroll right to see more
 ConditionsComfort  
Time TempWeatherWind HumidityBarometerVisibility
1:54 pm
Sat, Mar 2
69 °FSunny.21 mph41%29.66 "Hg10 mi
12:54 pm65 °FSunny.17 mph47%29.72 "Hg10 mi
11:54 am59 °FSunny.13 mph58%29.78 "Hg9 mi
10:54 am53 °FPassing clouds.15 mph66%29.81 "Hg8 mi
10:09 am46 °FPartly sunny.13 mph77%29.83 "Hg6 mi
9:54 am44 °FPartly sunny.8 mph79%29.85 "Hg6 mi
9:12 am38 °FFog.9 mph93%29.84 "Hg3 mi
8:19 am36 °FFog.10 mph92%29.86 "Hg1 mi
7:54 am36 °FFog.8 mph92%29.88 "Hg0 mi
6:54 am36 °FFog.9 mph92%29.88 "Hg1 mi
6:11 am37 °FFog.8 mph93%29.86 "Hg1 mi
5:54 am38 °FFog.8 mph93%29.87 "Hg1 mi
5:06 am38 °FFog.6 mph90%29.86 "Hg2 mi
5:00 am37 °FFog.6 mph89%29.86 "Hg3 mi
3:54 am41 °FFog.6 mph86%29.88 "Hg4 mi
2:54 am39 °FFog.10 mph86%29.89 "Hg4 mi
2:13 am36 °FFog.9 mph85%29.90 "Hg5 mi
1:54 am35 °FFog.6 mph88%29.91 "Hg5 mi
12:54 am39 °FClear.10 mph79%29.90 "Hg7 mi
11:54 pm
Fri, Mar 1
42 °FClear.8 mph73%29.90 "Hg9 mi
10:54 pm42 °FClear.8 mph73%29.90 "Hg9 mi
9:54 pm42 °FClear.10 mph73%29.91 "Hg9 mi
8:54 pm43 °FClear.7 mph71%29.91 "Hg10 mi
7:54 pm45 °FClear.14 mph65%29.90 "Hg10 mi
6:54 pm47 °FClear.14 mph61%29.89 "Hg10 mi
5:54 pm51 °FSunny.16 mph54%29.87 "Hg10 mi
4:54 pm54 °FSunny.20 mph49%29.87 "Hg10 mi
3:54 pm55 °FSunny.21 mph47%29.87 "Hg10 mi
Weather by CustomWeather, © 2024

See weather overview